createdAt,value
2023-05-04T00:01:24.702Z,100320.55
2023-05-04T00:03:54.951Z,100319.55
2023-05-04T00:06:23.486Z,100312.16
2023-05-04T00:08:51.885Z,100306.86
2023-05-04T00:11:20.464Z,100309.92
2023-05-04T00:13:48.927Z,100308.65
2023-05-04T00:16:17.381Z,100304.17
2023-05-04T00:18:45.848Z,100300.95
2023-05-04T00:21:14.236Z,100291.13
2023-05-04T00:23:42.597Z,100290.25
2023-05-04T00:26:10.932Z,100294.20
2023-05-04T00:28:39.452Z,100283.88
2023-05-04T00:31:08.173Z,100284.71
2023-05-04T00:33:36.658Z,100284.57
2023-05-04T00:36:05.367Z,100281.41
2023-05-04T00:38:48.324Z,100276.48
2023-05-04T00:41:17.860Z,100283.45
2023-05-04T00:43:46.382Z,100293.97
2023-05-04T00:46:15.095Z,100302.48
2023-05-04T00:48:46.303Z,100295.58
2023-05-04T00:51:16.537Z,100307.41
2023-05-04T00:53:45.652Z,100299.52
2023-05-04T00:56:14.521Z,100304.24
2023-05-04T00:58:43.379Z,100306.86
2023-05-04T01:01:11.819Z,100306.50
2023-05-04T01:03:40.362Z,100307.91
2023-05-04T01:06:30.580Z,100311.98
2023-05-04T01:09:07.382Z,100310.82
2023-05-04T01:12:03.331Z,100306.06
2023-05-04T01:14:31.906Z,100305.98
2023-05-04T01:17:05.610Z,100305.02
2023-05-04T01:19:35.277Z,100303.63
2023-05-04T01:22:04.234Z,100294.92
2023-05-04T01:24:33.126Z,100295.00
2023-05-04T01:27:23.915Z,100287.59
2023-05-04T01:30:03.223Z,100284.82
2023-05-04T01:32:32.773Z,100283.69
2023-05-04T01:35:01.631Z,100288.29
2023-05-04T01:37:30.075Z,100292.66
2023-05-04T01:39:58.692Z,100287.33
2023-05-04T01:42:27.115Z,100284.59
2023-05-04T01:44:56.563Z,100288.65
2023-05-04T01:47:25.033Z,100288.84
2023-05-04T01:49:53.535Z,100285.66
2023-05-04T01:52:21.935Z,100281.61
2023-05-04T01:54:50.536Z,100277.20
2023-05-04T01:57:18.926Z,100280.08
2023-05-04T01:59:47.240Z,100275.45
2023-05-04T02:02:15.685Z,100273.50
2023-05-04T02:04:44.579Z,100271.45
2023-05-04T02:07:13.234Z,100264.89
2023-05-04T02:09:41.808Z,100264.70
2023-05-04T02:12:10.160Z,100263.80
2023-05-04T02:14:38.650Z,100268.14
2023-05-04T02:17:07.312Z,100263.88
2023-05-04T02:19:35.723Z,100264.96
2023-05-04T02:22:04.085Z,100261.69
2023-05-04T02:24:32.475Z,100264.73
2023-05-04T02:27:02.261Z,100261.67
2023-05-04T02:29:30.671Z,100257.86
2023-05-04T02:31:59.266Z,100255.47
2023-05-04T02:34:27.780Z,100258.86
2023-05-04T02:36:56.122Z,100258.79
2023-05-04T02:39:24.520Z,100259.51
2023-05-04T02:41:52.937Z,100268.47
2023-05-04T02:44:21.773Z,100273.36
2023-05-04T02:46:50.106Z,100275.58
2023-05-04T02:49:18.442Z,100269.52
2023-05-04T02:51:47.797Z,100278.91
2023-05-04T02:54:16.367Z,100275.48
2023-05-04T02:56:44.735Z,100273.71
2023-05-04T02:59:13.394Z,100269.02
2023-05-04T03:01:41.937Z,100267.66
2023-05-04T03:04:10.406Z,100267.90
2023-05-04T03:06:38.791Z,100268.30
2023-05-04T03:09:07.177Z,100276.10
2023-05-04T03:11:35.718Z,100279.14
2023-05-04T03:14:04.309Z,100282.22
2023-05-04T03:16:32.806Z,100261.89
2023-05-04T03:19:01.555Z,100284.34
2023-05-04T03:21:30.770Z,100282.55
2023-05-04T03:23:59.488Z,100280.59
2023-05-04T03:26:28.860Z,100280.61
2023-05-04T03:28:57.316Z,100278.88
2023-05-04T03:31:26.447Z,100282.35
2023-05-04T03:33:55.286Z,100284.79
2023-05-04T03:36:23.919Z,100285.98
2023-05-04T03:38:52.971Z,100291.26
2023-05-04T03:41:21.640Z,100293.41
2023-05-04T03:43:50.174Z,100291.98
2023-05-04T03:46:20.068Z,100292.65
2023-05-04T03:48:48.460Z,100302.73
2023-05-04T03:51:17.659Z,100300.50
2023-05-04T03:53:46.379Z,100298.99
2023-05-04T03:56:15.842Z,100295.36
2023-05-04T03:58:44.280Z,100299.55
2023-05-04T04:01:14.688Z,100298.66
2023-05-04T04:03:43.145Z,100296.61
2023-05-04T04:06:13.618Z,100302.52
2023-05-04T04:08:42.363Z,100304.91
2023-05-04T04:11:10.720Z,100304.27
2023-05-04T04:13:39.056Z,100289.68
2023-05-04T04:16:07.869Z,100302.59
2023-05-04T04:18:36.315Z,100311.84
2023-05-04T04:21:04.910Z,100314.38
2023-05-04T04:23:33.374Z,100318.35
2023-05-04T04:26:01.801Z,100323.30
2023-05-04T04:28:30.579Z,100320.20
2023-05-04T04:31:04.083Z,100321.10
2023-05-04T04:33:32.768Z,100309.25
2023-05-04T04:36:01.946Z,100318.16
2023-05-04T04:38:30.441Z,100321.06
2023-05-04T04:40:58.792Z,100320.83
2023-05-04T04:43:27.152Z,100322.33
2023-05-04T04:45:55.858Z,100304.98
2023-05-04T04:48:26.055Z,100314.77
2023-05-04T04:50:54.696Z,100314.13
2023-05-04T04:53:23.145Z,100322.98
2023-05-04T04:55:52.460Z,100324.27
2023-05-04T04:58:21.217Z,100316.33
2023-05-04T05:00:53.134Z,100319.11
2023-05-04T05:03:21.804Z,100313.11
2023-05-04T05:05:50.410Z,100311.06
2023-05-04T05:08:18.884Z,100317.84
2023-05-04T05:10:47.393Z,100315.14
2023-05-04T05:13:15.946Z,100320.75
2023-05-04T05:15:44.511Z,100311.63
2023-05-04T05:18:12.915Z,100320.00
2023-05-04T05:20:41.229Z,100308.71
2023-05-04T05:23:09.776Z,100323.93
2023-05-04T05:25:39.253Z,100322.63
2023-05-04T05:28:10.400Z,100318.42
2023-05-04T05:30:38.898Z,100315.20
2023-05-04T05:33:07.891Z,100319.98
2023-05-04T05:35:36.802Z,100323.61
2023-05-04T05:38:05.196Z,100318.94
2023-05-04T05:40:33.599Z,100319.88
2023-05-04T05:43:07.027Z,100336.58
2023-05-04T05:45:35.903Z,100335.27
2023-05-04T05:48:04.722Z,100334.40
2023-05-04T05:50:34.445Z,100316.68
2023-05-04T05:53:02.941Z,100335.52
2023-05-04T05:55:31.419Z,100323.83
2023-05-04T05:57:59.955Z,100333.69
2023-05-04T06:00:28.848Z,100318.50
2023-05-04T06:02:57.465Z,100334.52
2023-05-04T06:05:26.037Z,100329.42
2023-05-04T06:07:54.513Z,100328.20
2023-05-04T06:10:22.873Z,100312.58
2023-05-04T06:12:51.254Z,100343.37
2023-05-04T06:15:20.062Z,100336.84
2023-05-04T06:17:50.109Z,100342.67
2023-05-04T06:20:18.508Z,100335.48
2023-05-04T06:22:47.025Z,100351.86
2023-05-04T06:25:15.742Z,100343.66
2023-05-04T06:27:44.350Z,100347.67
2023-05-04T06:30:14.303Z,100341.23
2023-05-04T06:32:48.477Z,100352.28
2023-05-04T06:35:17.010Z,100335.67
2023-05-04T06:37:45.348Z,100356.25
2023-05-04T06:40:21.211Z,100344.86
2023-05-04T06:42:49.797Z,100341.84
2023-05-04T06:45:18.417Z,100344.67
2023-05-04T06:47:47.481Z,100351.34
2023-05-04T06:50:16.071Z,100345.91
2023-05-04T06:52:46.655Z,100354.02
2023-05-04T06:55:15.158Z,100340.23
2023-05-04T06:57:43.819Z,100348.74
2023-05-04T07:00:12.832Z,100353.64
2023-05-04T07:02:41.245Z,100367.56
2023-05-04T07:05:10.315Z,100370.26
2023-05-04T07:07:38.820Z,100363.36
2023-05-04T07:10:07.821Z,100374.05
2023-05-04T07:12:37.888Z,100361.39
2023-05-04T07:15:11.375Z,100369.38
2023-05-04T07:17:40.497Z,100361.57
2023-05-04T07:20:09.321Z,100377.84
2023-05-04T07:22:38.232Z,100375.06
2023-05-04T07:25:06.892Z,100377.91
2023-05-04T07:27:37.998Z,100387.83
2023-05-04T07:30:07.622Z,100390.60
2023-05-04T07:32:36.276Z,100373.60
2023-05-04T07:35:05.386Z,100388.35
2023-05-04T07:37:33.722Z,100395.05
2023-05-04T07:40:06.308Z,100391.67
2023-05-04T07:42:35.170Z,100390.63
2023-05-04T07:45:04.247Z,100403.80
2023-05-04T07:47:32.933Z,100413.08
2023-05-04T07:50:02.049Z,100416.85
2023-05-04T07:52:30.871Z,100422.48
2023-05-04T07:54:59.310Z,100427.98
2023-05-04T07:57:27.712Z,100431.08
2023-05-04T07:59:56.253Z,100433.07
2023-05-04T08:02:24.885Z,100414.15
2023-05-04T08:04:53.401Z,100422.90
2023-05-04T08:07:22.830Z,100433.02
2023-05-04T08:09:52.708Z,100436.35
2023-05-04T08:12:21.133Z,100421.70
2023-05-04T08:14:49.659Z,100429.69
2023-05-04T08:17:18.072Z,100427.50
2023-05-04T08:19:46.437Z,100431.45
2023-05-04T08:22:14.858Z,100430.11
2023-05-04T08:24:45.443Z,100428.59
2023-05-04T08:27:17.056Z,100425.10
2023-05-04T08:29:45.628Z,100412.05
2023-05-04T08:32:14.509Z,100409.79
2023-05-04T08:34:43.176Z,100411.16
2023-05-04T08:37:11.955Z,100401.13
2023-05-04T08:39:44.115Z,100398.42
2023-05-04T08:42:12.540Z,100383.92
2023-05-04T08:44:42.082Z,100380.70
2023-05-04T08:47:12.687Z,100357.83
2023-05-04T08:49:41.519Z,100334.75
2023-05-04T08:52:10.376Z,100343.28
2023-05-04T08:54:40.231Z,100344.60
2023-05-04T08:57:08.666Z,100342.95
2023-05-04T08:59:37.639Z,100356.41
2023-05-04T09:02:06.449Z,100358.80
2023-05-04T09:04:35.286Z,100353.30
2023-05-04T09:07:09.740Z,100348.42
2023-05-04T09:09:38.558Z,100368.26
2023-05-04T09:12:07.099Z,100398.09
2023-05-04T09:14:36.488Z,100399.09
2023-05-04T09:17:14.013Z,100409.58
2023-05-04T09:19:44.452Z,100428.06
2023-05-04T09:22:17.389Z,100429.89
2023-05-04T09:24:46.640Z,100422.05
2023-05-04T09:27:18.782Z,100402.94
2023-05-04T09:29:54.106Z,100401.40
2023-05-04T09:32:22.693Z,100411.89
2023-05-04T09:34:52.145Z,100408.47
2023-05-04T09:37:21.586Z,100397.65
2023-05-04T09:39:59.494Z,100413.52
2023-05-04T09:42:29.000Z,100412.46
2023-05-04T09:45:00.740Z,100413.35
2023-05-04T09:47:55.809Z,100406.98
2023-05-04T09:50:26.223Z,100413.65
2023-05-04T09:52:55.000Z,100406.92
2023-05-04T09:55:24.570Z,100401.06
2023-05-04T09:57:53.223Z,100410.90
2023-05-04T10:00:21.622Z,100400.89
2023-05-04T10:03:02.118Z,100398.60
2023-05-04T10:05:38.844Z,100404.61
2023-05-04T10:08:09.153Z,100402.83
2023-05-04T10:10:39.347Z,100399.90
2023-05-04T10:13:07.915Z,100400.63
2023-05-04T10:15:40.848Z,100394.00
2023-05-04T10:18:34.209Z,100390.09
2023-05-04T10:21:15.713Z,100400.43
2023-05-04T10:23:58.987Z,100410.60
2023-05-04T10:26:35.972Z,100389.26
2023-05-04T10:29:23.427Z,100414.75
2023-05-04T10:31:53.612Z,100419.66
2023-05-04T10:34:33.076Z,100414.13
2023-05-04T10:37:04.351Z,100409.63
2023-05-04T10:39:34.469Z,100402.94
2023-05-04T10:42:04.730Z,100406.10
2023-05-04T10:44:35.334Z,100402.67
2023-05-04T10:47:08.898Z,100381.87
2023-05-04T10:49:39.519Z,100381.69
2023-05-04T10:52:09.111Z,100379.36
2023-05-04T10:54:38.587Z,100374.89
2023-05-04T10:57:09.590Z,100372.02
2023-05-04T10:59:39.513Z,100379.99
2023-05-04T11:02:08.568Z,100373.45
2023-05-04T11:04:38.189Z,100390.67
2023-05-04T11:07:08.890Z,100388.42
2023-05-04T11:09:39.342Z,100380.46
2023-05-04T11:12:10.934Z,100372.27
2023-05-04T11:14:43.468Z,100370.44
2023-05-04T11:17:27.270Z,100385.28
2023-05-04T11:19:57.036Z,100375.63
2023-05-04T11:22:25.678Z,100378.20
2023-05-04T11:24:56.090Z,100370.22
2023-05-04T11:27:29.777Z,100372.41
2023-05-04T11:30:02.331Z,100362.16
2023-05-04T11:32:44.409Z,100352.61
2023-05-04T11:35:23.142Z,100372.64
2023-05-04T11:37:51.869Z,100367.48
2023-05-04T11:40:24.392Z,100357.52
2023-05-04T11:42:57.364Z,100356.52
2023-05-04T11:45:34.737Z,100355.83
2023-05-04T11:48:03.413Z,100345.64
2023-05-04T11:50:32.193Z,100344.25
2023-05-04T11:53:10.087Z,100351.70
2023-05-04T11:55:38.714Z,100343.11
2023-05-04T11:58:09.199Z,100336.05
2023-05-04T12:00:40.139Z,100344.45
2023-05-04T12:03:27.988Z,100337.24
2023-05-04T12:06:04.337Z,100335.24
2023-05-04T12:08:42.330Z,100332.23
2023-05-04T12:11:26.534Z,100316.64
2023-05-04T12:14:12.008Z,100322.79
2023-05-04T12:16:41.306Z,100329.04
2023-05-04T12:19:13.602Z,100327.13
2023-05-04T12:21:54.395Z,100311.68
2023-05-04T12:24:23.961Z,100313.66
2023-05-04T12:26:52.401Z,100320.47
2023-05-04T12:29:21.029Z,100316.59
2023-05-04T12:31:49.488Z,100314.88
2023-05-04T12:34:18.023Z,100303.71
2023-05-04T12:36:46.679Z,100296.20
2023-05-04T12:39:15.192Z,100299.52
2023-05-04T12:41:43.708Z,100292.23
2023-05-04T12:44:14.572Z,100287.71
2023-05-04T12:46:46.138Z,100294.92
2023-05-04T12:49:14.931Z,100303.30
2023-05-04T12:51:43.798Z,100296.33
2023-05-04T12:54:12.366Z,100294.48
2023-05-04T12:56:40.852Z,100293.65
2023-05-04T12:59:09.229Z,100295.92
2023-05-04T13:01:37.761Z,100290.14
2023-05-04T13:04:06.177Z,100281.71
2023-05-04T13:06:34.595Z,100281.67
2023-05-04T13:09:06.100Z,100286.77
2023-05-04T13:11:35.278Z,100284.38
2023-05-04T13:14:03.886Z,100267.83
2023-05-04T13:16:32.242Z,100262.11
2023-05-04T13:19:00.829Z,100259.21
2023-05-04T13:21:29.231Z,100257.46
2023-05-04T13:23:59.537Z,100246.61
2023-05-04T13:26:28.047Z,100233.59
2023-05-04T13:28:56.476Z,100227.98
2023-05-04T13:31:24.887Z,100207.80
2023-05-04T13:33:53.622Z,100212.52
2023-05-04T13:36:22.119Z,100211.04
2023-05-04T13:38:51.430Z,100206.23
2023-05-04T13:41:19.807Z,100201.46
2023-05-04T13:43:48.783Z,100200.75
2023-05-04T13:46:17.410Z,100188.89
2023-05-04T13:48:45.916Z,100188.81
2023-05-04T13:51:14.378Z,100194.35
2023-05-04T13:53:46.285Z,100187.44
2023-05-04T13:56:14.693Z,100197.00
2023-05-04T13:58:43.189Z,100198.77
2023-05-04T14:01:11.864Z,100206.29
2023-05-04T14:03:40.999Z,100204.38
2023-05-04T14:06:09.631Z,100208.16
2023-05-04T14:08:38.144Z,100207.84
2023-05-04T14:11:06.462Z,100204.73
2023-05-04T14:13:34.837Z,100196.17
2023-05-04T14:16:04.046Z,100202.23
2023-05-04T14:18:33.154Z,100198.01
2023-05-04T14:21:01.599Z,100199.20
2023-05-04T14:23:29.992Z,100198.44
2023-05-04T14:25:58.382Z,100197.77
2023-05-04T14:28:26.709Z,100183.76
2023-05-04T14:30:55.146Z,100193.08
2023-05-04T14:33:24.831Z,100192.39
2023-05-04T14:35:53.208Z,100187.16
2023-05-04T14:38:21.728Z,100183.89
2023-05-04T14:40:50.183Z,100183.52
2023-05-04T14:43:18.662Z,100186.30
2023-05-04T14:45:47.305Z,100184.27
2023-05-04T14:48:16.647Z,100185.96
2023-05-04T14:50:45.086Z,100174.69
2023-05-04T14:53:13.537Z,100177.63
2023-05-04T14:55:42.381Z,100180.94
2023-05-04T14:58:11.084Z,100175.43
2023-05-04T15:00:39.508Z,100174.41
2023-05-04T15:03:08.372Z,100170.38
2023-05-04T15:05:36.847Z,100171.52
2023-05-04T15:08:05.608Z,100168.89
2023-05-04T15:10:33.986Z,100172.38
2023-05-04T15:13:03.532Z,100165.28
2023-05-04T15:15:32.094Z,100166.81
2023-05-04T15:18:00.566Z,100167.30
2023-05-04T15:20:29.112Z,100168.21
2023-05-04T15:22:57.629Z,100170.82
2023-05-04T15:25:27.493Z,100165.83
2023-05-04T15:27:55.880Z,100154.44
2023-05-04T15:30:24.250Z,100166.49
2023-05-04T15:32:52.667Z,100167.66
2023-05-04T15:35:21.295Z,100168.67
2023-05-04T15:37:49.666Z,100167.52
2023-05-04T15:40:18.645Z,100166.04
2023-05-04T15:42:48.562Z,100163.53
2023-05-04T15:45:19.867Z,100165.48
2023-05-04T15:47:48.562Z,100158.30
2023-05-04T15:50:17.133Z,100162.67
2023-05-04T15:52:45.684Z,100158.86
2023-05-04T15:55:25.316Z,100161.54
2023-05-04T15:57:54.495Z,100158.04
2023-05-04T16:00:23.144Z,100159.45
2023-05-04T16:02:52.027Z,100157.64
2023-05-04T16:05:20.706Z,100158.20
2023-05-04T16:07:49.107Z,100164.85
2023-05-04T16:10:17.592Z,100157.88
2023-05-04T16:12:45.978Z,100162.52
2023-05-04T16:15:14.534Z,100162.11
2023-05-04T16:17:43.043Z,100158.77
2023-05-04T16:20:12.044Z,100157.73
2023-05-04T16:22:40.498Z,100167.39
2023-05-04T16:25:11.030Z,100165.92
2023-05-04T16:27:40.012Z,100168.46
2023-05-04T16:30:09.229Z,100163.20
2023-05-04T16:32:38.056Z,100170.41
2023-05-04T16:35:07.380Z,100168.42
2023-05-04T16:37:37.516Z,100168.89
2023-05-04T16:40:14.414Z,100166.05
2023-05-04T16:42:43.923Z,100163.44
2023-05-04T16:45:16.577Z,100165.23
2023-05-04T16:47:44.949Z,100163.89
2023-05-04T16:50:14.257Z,100165.70
2023-05-04T16:52:42.982Z,100168.38
2023-05-04T16:55:12.406Z,100164.94
2023-05-04T16:57:41.271Z,100169.73
2023-05-04T17:00:10.829Z,100168.77
2023-05-04T17:02:39.223Z,100171.40
2023-05-04T17:05:10.664Z,100172.69
2023-05-04T17:07:39.965Z,100176.68
2023-05-04T17:10:09.129Z,100178.02
2023-05-04T17:12:38.086Z,100180.45
2023-05-04T17:15:06.973Z,100183.64
2023-05-04T17:17:35.545Z,100183.77
2023-05-04T17:20:04.350Z,100186.52
2023-05-04T17:22:32.691Z,100188.00
2023-05-04T17:25:01.284Z,100176.79
2023-05-04T17:27:29.644Z,100188.14
2023-05-04T17:29:57.980Z,100194.33
2023-05-04T17:32:27.014Z,100191.16
2023-05-04T17:34:57.067Z,100195.89
2023-05-04T17:37:27.163Z,100198.23
2023-05-04T17:39:55.623Z,100205.42
2023-05-04T17:42:24.037Z,100204.38
2023-05-04T17:44:52.483Z,100205.84
2023-05-04T17:47:20.988Z,100211.02
2023-05-04T17:49:49.358Z,100212.55
2023-05-04T17:52:17.820Z,100211.35
2023-05-04T17:54:46.135Z,100213.52
2023-05-04T17:57:14.361Z,100215.75
2023-05-04T17:59:42.882Z,100217.27
2023-05-04T18:02:11.530Z,100220.30
2023-05-04T18:04:39.864Z,100220.45
2023-05-04T18:07:08.212Z,100220.36
2023-05-04T18:09:36.620Z,100221.12
2023-05-04T18:12:05.364Z,100225.61
2023-05-04T18:14:33.838Z,100216.29
2023-05-04T18:17:02.200Z,100229.48
2023-05-04T18:19:34.566Z,100230.23
2023-05-04T18:22:02.891Z,100231.12
2023-05-04T18:24:33.769Z,100230.71
2023-05-04T18:27:02.605Z,100236.52
2023-05-04T18:29:32.263Z,100242.85
2023-05-04T18:32:01.501Z,100233.89
2023-05-04T18:34:30.026Z,100232.31
2023-05-04T18:36:58.383Z,100249.12
2023-05-04T18:39:26.693Z,100256.21
2023-05-04T18:41:55.022Z,100255.86
2023-05-04T18:44:23.328Z,100252.67
2023-05-04T18:46:51.717Z,100255.04
2023-05-04T18:49:20.152Z,100257.35
2023-05-04T18:51:48.475Z,100258.11
2023-05-04T18:54:17.495Z,100253.58
2023-05-04T18:56:45.958Z,100257.29
2023-05-04T18:59:14.304Z,100257.38
2023-05-04T19:01:42.643Z,100258.52
2023-05-04T19:04:11.117Z,100259.33
2023-05-04T19:06:39.469Z,100258.23
2023-05-04T19:09:08.974Z,100258.40
2023-05-04T19:11:37.398Z,100258.98
2023-05-04T19:14:05.908Z,100258.41
2023-05-04T19:16:34.317Z,100261.70
2023-05-04T19:19:02.903Z,100262.31
2023-05-04T19:21:31.222Z,100264.25
2023-05-04T19:23:59.543Z,100264.65
2023-05-04T19:26:27.808Z,100264.39
2023-05-04T19:28:56.146Z,100261.45
2023-05-04T19:31:24.592Z,100260.23
2023-05-04T19:33:53.206Z,100259.44
2023-05-04T19:36:22.076Z,100262.81
2023-05-04T19:38:50.483Z,100264.39
2023-05-04T19:41:19.046Z,100262.95
2023-05-04T19:43:47.398Z,100264.23
2023-05-04T19:46:15.904Z,100264.63
2023-05-04T19:48:44.398Z,100268.89
2023-05-04T19:51:12.932Z,100265.56
2023-05-04T19:53:41.417Z,100266.20
2023-05-04T19:56:09.954Z,100266.14
2023-05-04T19:58:38.828Z,100267.75
2023-05-04T20:01:07.299Z,100267.52
2023-05-04T20:03:35.758Z,100267.37
2023-05-04T20:06:04.337Z,100253.58
2023-05-04T20:08:32.839Z,100261.68
2023-05-04T20:11:01.217Z,100257.90
2023-05-04T20:13:29.623Z,100258.86
2023-05-04T20:15:57.982Z,100255.37
2023-05-04T20:18:26.369Z,100256.03
2023-05-04T20:20:54.813Z,100254.85
2023-05-04T20:23:23.343Z,100256.12
2023-05-04T20:25:51.711Z,100253.60
2023-05-04T20:28:20.068Z,100259.13
2023-05-04T20:30:48.513Z,100254.77
2023-05-04T20:33:16.960Z,100246.12
2023-05-04T20:35:45.579Z,100257.84
2023-05-04T20:38:14.401Z,100245.27
2023-05-04T20:40:42.804Z,100251.10
2023-05-04T20:43:11.647Z,100252.59
2023-05-04T20:45:40.065Z,100242.48
2023-05-04T20:48:08.500Z,100252.66
2023-05-04T20:50:36.930Z,100256.00
2023-05-04T20:53:05.440Z,100257.49
2023-05-04T20:55:33.842Z,100258.55
2023-05-04T20:58:02.328Z,100263.25
2023-05-04T21:00:33.002Z,100262.66
2023-05-04T21:03:02.231Z,100267.54
2023-05-04T21:05:30.830Z,100268.13
2023-05-04T21:07:59.247Z,100271.91
2023-05-04T21:10:27.630Z,100270.96
2023-05-04T21:12:57.733Z,100272.02
2023-05-04T21:15:26.791Z,100273.43
2023-05-04T21:17:55.361Z,100272.19
2023-05-04T21:20:23.783Z,100277.59
2023-05-04T21:22:52.108Z,100273.33
2023-05-04T21:25:20.554Z,100275.98
2023-05-04T21:27:48.937Z,100275.91
2023-05-04T21:30:17.499Z,100272.39
2023-05-04T21:32:46.396Z,100273.48
2023-05-04T21:35:16.669Z,100253.55
2023-05-04T21:37:45.082Z,100266.52
2023-05-04T21:40:13.975Z,100262.15
2023-05-04T21:42:42.383Z,100263.08
2023-05-04T21:45:11.156Z,100261.67
2023-05-04T21:47:39.850Z,100266.51
2023-05-04T21:50:08.960Z,100262.87
2023-05-04T21:52:37.633Z,100266.16
2023-05-04T21:55:07.217Z,100257.91
2023-05-04T21:57:35.648Z,100267.70
2023-05-04T22:00:12.055Z,100263.61
2023-05-04T22:02:40.725Z,100265.55
2023-05-04T22:05:10.448Z,100261.32
2023-05-04T22:07:38.802Z,100255.91
2023-05-04T22:10:08.124Z,100256.17
2023-05-04T22:12:36.779Z,100250.33
2023-05-04T22:15:06.864Z,100252.39
2023-05-04T22:17:35.341Z,100249.23
2023-05-04T22:20:03.967Z,100242.52
2023-05-04T22:22:32.343Z,100251.07
2023-05-04T22:25:00.913Z,100248.02
2023-05-04T22:27:29.275Z,100243.48
2023-05-04T22:29:57.656Z,100243.53
2023-05-04T22:32:26.307Z,100241.01
2023-05-04T22:34:54.691Z,100243.92
2023-05-04T22:37:23.131Z,100244.06
2023-05-04T22:39:51.909Z,100242.20
2023-05-04T22:42:20.259Z,100239.48
2023-05-04T22:44:48.588Z,100238.16
2023-05-04T22:47:16.956Z,100240.34
2023-05-04T22:49:45.680Z,100237.89
2023-05-04T22:52:15.059Z,100238.99
2023-05-04T22:54:43.469Z,100238.92
2023-05-04T22:57:12.338Z,100238.54
2023-05-04T22:59:40.666Z,100238.23
2023-05-04T23:02:09.264Z,100234.50
2023-05-04T23:04:38.181Z,100235.04
2023-05-04T23:07:06.624Z,100235.04
2023-05-04T23:09:42.919Z,100238.38
2023-05-04T23:12:15.459Z,100238.86
2023-05-04T23:14:43.881Z,100238.47
2023-05-04T23:17:12.334Z,100238.48
2023-05-04T23:19:41.030Z,100234.02
2023-05-04T23:22:09.556Z,100232.25
2023-05-04T23:24:38.020Z,100227.79
2023-05-04T23:27:06.379Z,100226.21
2023-05-04T23:29:34.710Z,100222.00
2023-05-04T23:32:04.104Z,100220.33
2023-05-04T23:34:32.541Z,100216.47
2023-05-04T23:37:01.354Z,100220.80
2023-05-04T23:39:29.964Z,100206.14
2023-05-04T23:41:58.354Z,100217.97
2023-05-04T23:44:26.945Z,100217.14
2023-05-04T23:46:55.268Z,100220.67
2023-05-04T23:49:23.658Z,100213.47
2023-05-04T23:51:53.102Z,100203.71
2023-05-04T23:54:21.584Z,100214.54
2023-05-04T23:56:50.129Z,100210.76
2023-05-04T23:59:18.739Z,100207.15
